createdAt,value
2023-05-09T00:00:25.156Z,18.70
2023-05-09T00:03:15.760Z,18.40
2023-05-09T00:06:03.418Z,18.40
2023-05-09T00:08:50.951Z,18.50
2023-05-09T00:11:39.096Z,18.50
2023-05-09T00:14:27.721Z,18.40
2023-05-09T00:17:15.891Z,18.40
2023-05-09T00:20:05.341Z,18.30
2023-05-09T00:22:52.889Z,18.30
2023-05-09T00:25:40.283Z,18.30
2023-05-09T00:28:27.818Z,18.40
2023-05-09T00:31:15.732Z,18.20
2023-05-09T00:34:03.234Z,18.20
2023-05-09T00:36:50.769Z,18.20
2023-05-09T00:39:38.263Z,18.10
2023-05-09T00:42:25.916Z,18.10
2023-05-09T00:45:13.561Z,18.00
2023-05-09T00:48:01.502Z,18.00
2023-05-09T00:50:53.082Z,17.90
2023-05-09T00:53:41.405Z,18.00
2023-05-09T00:56:28.928Z,17.90
2023-05-09T00:59:17.530Z,17.80
2023-05-09T01:02:05.373Z,17.80
2023-05-09T01:04:53.519Z,17.80
2023-05-09T01:08:02.931Z,17.80
2023-05-09T01:11:07.317Z,17.70
2023-05-09T01:14:12.835Z,17.70
2023-05-09T01:17:20.154Z,17.80
2023-05-09T01:20:18.695Z,17.80
2023-05-09T01:23:33.852Z,17.80
2023-05-09T01:27:05.094Z,17.80
2023-05-09T01:30:03.222Z,17.60
2023-05-09T01:32:55.833Z,17.70
2023-05-09T01:35:52.765Z,17.50
2023-05-09T01:38:44.088Z,17.50
2023-05-09T01:41:36.385Z,17.50
2023-05-09T01:44:26.743Z,17.30
2023-05-09T01:47:16.700Z,17.30
2023-05-09T01:50:06.745Z,17.30
2023-05-09T01:52:59.655Z,17.30
2023-05-09T01:55:50.528Z,17.20
2023-05-09T01:58:40.293Z,17.10
2023-05-09T02:01:29.553Z,17.10
2023-05-09T02:04:19.112Z,17.00
2023-05-09T02:07:08.348Z,17.10
2023-05-09T02:09:59.307Z,17.10
2023-05-09T02:12:46.838Z,17.00
2023-05-09T02:15:35.013Z,17.10
2023-05-09T02:18:23.149Z,17.20
2023-05-09T02:21:11.671Z,17.20
2023-05-09T02:23:59.608Z,17.10
2023-05-09T02:26:47.362Z,17.10
2023-05-09T02:29:47.739Z,17.00
2023-05-09T02:32:38.942Z,16.90
2023-05-09T02:35:29.029Z,16.80
2023-05-09T02:38:17.086Z,17.10
2023-05-09T02:41:07.644Z,17.00
2023-05-09T02:43:55.138Z,17.10
2023-05-09T02:46:42.611Z,16.90
2023-05-09T02:49:32.426Z,16.80
2023-05-09T02:52:20.120Z,16.80
2023-05-09T02:55:08.572Z,16.80
2023-05-09T02:58:05.669Z,16.70
2023-05-09T03:00:59.901Z,16.50
2023-05-09T03:03:47.613Z,16.40
2023-05-09T03:06:36.475Z,16.40
2023-05-09T03:09:23.925Z,16.40
2023-05-09T03:12:11.442Z,16.30
2023-05-09T03:14:58.890Z,16.20
2023-05-09T03:17:46.738Z,16.60
2023-05-09T03:20:34.311Z,16.50
2023-05-09T03:23:21.834Z,16.50
2023-05-09T03:26:09.315Z,16.40
2023-05-09T03:28:57.042Z,16.10
2023-05-09T03:31:44.523Z,16.30
2023-05-09T03:34:32.034Z,16.30
2023-05-09T03:37:19.651Z,16.20
2023-05-09T03:40:08.730Z,16.10
2023-05-09T03:42:56.169Z,16.00
2023-05-09T03:45:44.473Z,16.10
2023-05-09T03:48:32.108Z,16.20
2023-05-09T03:51:20.836Z,16.30
2023-05-09T03:54:08.348Z,16.40
2023-05-09T03:56:55.911Z,16.30
2023-05-09T03:59:43.475Z,16.30
2023-05-09T04:02:31.236Z,16.40
2023-05-09T04:05:19.448Z,16.40
2023-05-09T04:08:06.881Z,16.30
2023-05-09T04:10:54.400Z,16.30
2023-05-09T04:13:42.016Z,16.30
2023-05-09T04:16:31.232Z,16.40
2023-05-09T04:19:19.090Z,16.40
2023-05-09T04:22:06.672Z,16.40
2023-05-09T04:24:54.837Z,16.30
2023-05-09T04:27:42.656Z,16.30
2023-05-09T04:30:30.950Z,16.60
2023-05-09T04:33:18.591Z,17.20
2023-05-09T04:36:06.726Z,17.70
2023-05-09T04:38:54.246Z,17.90
2023-05-09T04:41:44.472Z,17.90
2023-05-09T04:44:33.280Z,17.90
2023-05-09T04:47:20.827Z,18.00
2023-05-09T04:50:09.225Z,17.60
2023-05-09T04:52:56.695Z,17.40
2023-05-09T04:55:44.223Z,17.30
2023-05-09T04:58:33.337Z,17.40
2023-05-09T05:01:20.992Z,17.60
2023-05-09T05:04:08.550Z,18.00
2023-05-09T05:06:56.288Z,18.70
2023-05-09T05:09:43.792Z,19.40
2023-05-09T05:12:31.379Z,20.00
2023-05-09T05:15:19.760Z,20.80
2023-05-09T05:18:07.294Z,22.00
2023-05-09T05:20:54.832Z,22.20
2023-05-09T05:23:42.439Z,22.60
2023-05-09T05:26:30.077Z,23.40
2023-05-09T05:29:18.018Z,24.20
2023-05-09T05:32:05.720Z,25.00
2023-05-09T05:34:53.090Z,24.50
2023-05-09T05:37:41.707Z,25.60
2023-05-09T05:40:29.288Z,26.00
2023-05-09T05:43:16.892Z,25.50
2023-05-09T05:46:04.977Z,24.30
2023-05-09T05:48:52.516Z,24.30
2023-05-09T05:51:39.934Z,23.30
2023-05-09T05:54:27.421Z,23.20
2023-05-09T05:57:14.881Z,23.00
2023-05-09T06:00:05.822Z,21.60
2023-05-09T06:02:53.517Z,21.00
2023-05-09T06:05:46.632Z,20.60
2023-05-09T06:08:34.114Z,19.90
2023-05-09T06:11:22.013Z,20.20
2023-05-09T06:14:09.855Z,19.90
2023-05-09T06:16:58.318Z,19.90
2023-05-09T06:19:45.951Z,20.20
2023-05-09T06:22:33.344Z,20.20
2023-05-09T06:25:21.185Z,19.80
2023-05-09T06:28:09.204Z,20.10
2023-05-09T06:30:57.154Z,20.40
2023-05-09T06:33:44.705Z,20.20
2023-05-09T06:36:35.340Z,20.30
2023-05-09T06:39:22.889Z,20.00
2023-05-09T06:42:10.416Z,20.00
2023-05-09T06:44:58.064Z,20.00
2023-05-09T06:47:45.674Z,20.00
2023-05-09T06:50:33.275Z,19.90
2023-05-09T06:53:20.952Z,20.20
2023-05-09T06:56:08.590Z,20.30
2023-05-09T06:58:56.168Z,20.50
2023-05-09T07:01:43.744Z,20.80
2023-05-09T07:04:31.352Z,20.10
2023-05-09T07:07:18.879Z,20.40
2023-05-09T07:10:11.766Z,20.50
2023-05-09T07:12:59.668Z,20.40
2023-05-09T07:15:47.388Z,20.60
2023-05-09T07:18:34.879Z,20.90
2023-05-09T07:21:22.404Z,21.00
2023-05-09T07:24:10.190Z,20.80
2023-05-09T07:26:57.683Z,20.80
2023-05-09T07:29:45.191Z,21.00
2023-05-09T07:32:33.041Z,20.60
2023-05-09T07:35:21.348Z,20.10
2023-05-09T07:38:08.901Z,20.00
2023-05-09T07:40:56.395Z,20.30
2023-05-09T07:43:43.864Z,20.90
2023-05-09T07:46:31.417Z,21.20
2023-05-09T07:49:18.844Z,20.60
2023-05-09T07:52:06.553Z,20.80
2023-05-09T07:54:54.794Z,21.30
2023-05-09T07:57:42.240Z,21.20
2023-05-09T08:00:32.480Z,21.40
2023-05-09T08:03:21.201Z,21.40
2023-05-09T08:06:09.817Z,21.00
2023-05-09T08:08:57.296Z,21.00
2023-05-09T08:11:45.401Z,21.30
2023-05-09T08:14:32.965Z,21.40
2023-05-09T08:17:20.521Z,21.30
2023-05-09T08:20:09.211Z,21.20
2023-05-09T08:22:56.665Z,21.70
2023-05-09T08:25:44.172Z,21.40
2023-05-09T08:28:31.608Z,22.00
2023-05-09T08:31:19.077Z,22.20
2023-05-09T08:34:06.583Z,22.40
2023-05-09T08:36:54.173Z,22.60
2023-05-09T08:39:41.799Z,22.40
2023-05-09T08:42:32.087Z,22.40
2023-05-09T08:45:29.337Z,22.70
2023-05-09T08:48:17.864Z,22.80
2023-05-09T08:51:07.167Z,23.00
2023-05-09T08:53:55.177Z,22.70
2023-05-09T08:56:43.123Z,23.20
2023-05-09T08:59:33.303Z,23.30
2023-05-09T09:02:22.070Z,23.30
2023-05-09T09:05:23.731Z,23.10
2023-05-09T09:08:18.665Z,23.00
2023-05-09T09:11:07.472Z,23.60
2023-05-09T09:14:00.380Z,23.70
2023-05-09T09:16:50.281Z,23.80
2023-05-09T09:19:41.321Z,23.90
2023-05-09T09:22:34.258Z,24.10
2023-05-09T09:25:21.722Z,23.50
2023-05-09T09:28:09.386Z,24.10
2023-05-09T09:30:57.301Z,24.40
2023-05-09T09:33:44.763Z,24.50
2023-05-09T09:36:33.106Z,24.60
2023-05-09T09:39:22.184Z,24.20
2023-05-09T09:42:13.671Z,24.50
2023-05-09T09:45:09.180Z,24.90
2023-05-09T09:47:56.664Z,24.30
2023-05-09T09:50:44.157Z,24.50
2023-05-09T09:53:39.590Z,24.30
2023-05-09T09:56:50.128Z,24.40
2023-05-09T09:59:37.666Z,24.30
2023-05-09T10:02:25.510Z,24.80
2023-05-09T10:05:22.340Z,24.50
2023-05-09T10:08:10.113Z,25.10
2023-05-09T10:10:59.893Z,24.90
2023-05-09T10:13:47.625Z,25.30
2023-05-09T10:16:43.739Z,25.10
2023-05-09T10:19:33.169Z,25.00
2023-05-09T10:22:22.358Z,24.50
2023-05-09T10:25:20.085Z,25.50
2023-05-09T10:28:23.924Z,25.80
2023-05-09T10:31:25.439Z,25.50
2023-05-09T10:34:15.502Z,24.90
2023-05-09T10:37:03.869Z,25.40
2023-05-09T10:39:53.955Z,25.30
2023-05-09T10:42:45.792Z,25.10
2023-05-09T10:45:34.877Z,25.40
2023-05-09T10:48:24.301Z,25.30
2023-05-09T10:51:13.997Z,25.30
2023-05-09T10:54:01.550Z,25.90
2023-05-09T10:56:49.034Z,25.90
2023-05-09T10:59:41.024Z,25.70
2023-05-09T11:02:32.943Z,25.70
2023-05-09T11:05:20.948Z,25.20
2023-05-09T11:08:33.412Z,25.50
2023-05-09T11:11:27.150Z,25.90
2023-05-09T11:14:49.631Z,25.60
2023-05-09T11:17:40.241Z,25.90
2023-05-09T11:20:29.558Z,26.20
2023-05-09T11:23:19.819Z,26.30
2023-05-09T11:26:09.049Z,26.40
2023-05-09T11:28:59.897Z,26.30
2023-05-09T11:32:17.071Z,26.60
2023-05-09T11:35:10.202Z,26.10
2023-05-09T11:38:03.037Z,27.00
2023-05-09T11:40:55.084Z,26.50
2023-05-09T11:43:45.012Z,27.00
2023-05-09T11:46:32.575Z,27.40
2023-05-09T11:49:20.764Z,27.10
2023-05-09T11:52:08.524Z,26.80
2023-05-09T11:54:55.984Z,26.80
2023-05-09T11:57:50.071Z,26.50
2023-05-09T12:00:45.837Z,26.60
2023-05-09T12:03:33.617Z,26.70
2023-05-09T12:06:21.941Z,27.00
2023-05-09T12:09:10.457Z,27.30
2023-05-09T12:11:57.946Z,27.70
2023-05-09T12:14:45.866Z,27.30
2023-05-09T12:17:33.492Z,27.40
2023-05-09T12:20:20.990Z,27.20
2023-05-09T12:23:11.770Z,27.40
2023-05-09T12:25:59.249Z,27.50
2023-05-09T12:28:49.105Z,27.10
2023-05-09T12:31:37.393Z,27.30
2023-05-09T12:34:25.570Z,27.50
2023-05-09T12:37:21.515Z,27.50
2023-05-09T12:40:18.475Z,26.90
2023-05-09T12:43:07.406Z,26.90
2023-05-09T12:45:55.147Z,27.40
2023-05-09T12:48:45.242Z,27.60
2023-05-09T12:51:32.742Z,27.30
2023-05-09T12:54:22.759Z,27.70
2023-05-09T12:57:23.391Z,27.40
2023-05-09T13:00:12.495Z,27.50
2023-05-09T13:03:00.451Z,27.80
2023-05-09T13:06:02.282Z,27.80
2023-05-09T13:09:02.942Z,27.90
2023-05-09T13:11:51.983Z,28.10
2023-05-09T13:14:39.584Z,27.70
2023-05-09T13:17:27.099Z,27.70
2023-05-09T13:20:15.420Z,27.60
2023-05-09T13:23:03.247Z,27.30
2023-05-09T13:25:51.558Z,27.80
2023-05-09T13:28:39.064Z,27.80
2023-05-09T13:31:26.596Z,28.00
2023-05-09T13:34:14.163Z,28.00
2023-05-09T13:37:01.610Z,28.50
2023-05-09T13:39:49.522Z,27.90
2023-05-09T13:42:37.078Z,29.00
2023-05-09T13:45:24.618Z,29.10
2023-05-09T13:48:12.075Z,28.60
2023-05-09T13:51:01.280Z,28.50
2023-05-09T13:53:48.846Z,28.90
2023-05-09T13:56:36.427Z,28.80
2023-05-09T13:59:24.139Z,28.70
2023-05-09T14:02:11.722Z,28.50
2023-05-09T14:04:59.325Z,28.10
2023-05-09T14:07:47.727Z,28.40
2023-05-09T14:10:35.268Z,28.10
2023-05-09T14:13:23.171Z,28.40
2023-05-09T14:16:10.918Z,28.20
2023-05-09T14:18:58.626Z,28.50
2023-05-09T14:21:49.159Z,28.60
2023-05-09T14:24:36.753Z,29.00
2023-05-09T14:27:25.255Z,28.60
2023-05-09T14:30:13.691Z,28.60
2023-05-09T14:33:01.463Z,29.40
2023-05-09T14:35:49.975Z,28.60
2023-05-09T14:38:37.758Z,28.10
2023-05-09T14:41:25.317Z,28.30
2023-05-09T14:44:13.285Z,27.70
2023-05-09T14:47:00.853Z,28.00
2023-05-09T14:49:48.341Z,27.80
2023-05-09T14:52:35.902Z,28.70
2023-05-09T14:55:23.668Z,28.50
2023-05-09T14:58:13.440Z,28.30
2023-05-09T15:01:01.544Z,28.70
2023-05-09T15:03:49.178Z,28.70
2023-05-09T15:06:36.810Z,29.10
2023-05-09T15:09:24.353Z,28.60
2023-05-09T15:12:11.857Z,28.70
2023-05-09T15:15:16.672Z,28.30
2023-05-09T15:18:04.210Z,28.50
2023-05-09T15:20:52.215Z,28.10
2023-05-09T15:23:39.813Z,28.40
2023-05-09T15:26:27.318Z,28.40
2023-05-09T15:29:14.850Z,28.40
2023-05-09T15:32:02.783Z,29.00
2023-05-09T15:34:50.579Z,28.80
2023-05-09T15:37:38.551Z,28.50
2023-05-09T15:40:26.410Z,28.60
2023-05-09T15:43:13.892Z,28.60
2023-05-09T15:46:01.992Z,29.10
2023-05-09T15:48:49.594Z,28.60
2023-05-09T15:51:37.185Z,28.30
2023-05-09T15:54:27.761Z,28.90
2023-05-09T15:57:16.883Z,28.70
2023-05-09T16:00:05.642Z,28.00
2023-05-09T16:02:53.314Z,27.70
2023-05-09T16:05:41.159Z,27.80
2023-05-09T16:08:28.793Z,27.30
2023-05-09T16:11:16.275Z,27.50
2023-05-09T16:14:06.904Z,27.30
2023-05-09T16:16:54.651Z,27.30
2023-05-09T16:19:42.523Z,27.40
2023-05-09T16:22:30.142Z,27.30
2023-05-09T16:25:18.177Z,27.40
2023-05-09T16:28:07.234Z,27.50
2023-05-09T16:30:54.854Z,27.80
2023-05-09T16:33:42.285Z,27.50
2023-05-09T16:36:30.485Z,27.80
2023-05-09T16:39:18.427Z,27.90
2023-05-09T16:42:06.051Z,27.50
2023-05-09T16:44:53.562Z,27.30
2023-05-09T16:47:41.089Z,27.10
2023-05-09T16:50:29.013Z,27.50
2023-05-09T16:53:18.968Z,27.50
2023-05-09T16:56:08.079Z,27.00
2023-05-09T16:58:55.568Z,27.30
2023-05-09T17:01:43.687Z,26.70
2023-05-09T17:04:31.433Z,27.10
2023-05-09T17:07:19.405Z,27.30
2023-05-09T17:10:07.568Z,27.10
2023-05-09T17:12:55.264Z,27.30
2023-05-09T17:15:42.978Z,27.20
2023-05-09T17:18:37.580Z,26.70
2023-05-09T17:21:26.024Z,26.40
2023-05-09T17:24:14.065Z,26.20
2023-05-09T17:27:02.084Z,26.00
2023-05-09T17:29:50.458Z,26.00
2023-05-09T17:32:38.020Z,25.70
2023-05-09T17:35:26.045Z,25.90
2023-05-09T17:38:13.551Z,25.60
2023-05-09T17:41:00.958Z,25.50
2023-05-09T17:43:48.480Z,25.70
2023-05-09T17:46:35.966Z,25.80
2023-05-09T17:49:23.689Z,25.80
2023-05-09T17:52:11.174Z,25.40
2023-05-09T17:54:58.948Z,24.90
2023-05-09T17:57:47.432Z,25.10
2023-05-09T18:00:35.267Z,25.30
2023-05-09T18:03:22.970Z,25.40
2023-05-09T18:06:10.510Z,25.10
2023-05-09T18:08:58.028Z,25.20
2023-05-09T18:11:45.579Z,25.00
2023-05-09T18:14:33.102Z,24.90
2023-05-09T18:17:20.596Z,25.10
2023-05-09T18:20:08.880Z,24.90
2023-05-09T18:22:59.578Z,24.70
2023-05-09T18:25:48.486Z,24.50
2023-05-09T18:28:42.128Z,24.70
2023-05-09T18:31:31.666Z,24.80
2023-05-09T18:34:19.354Z,24.70
2023-05-09T18:37:07.214Z,24.60
2023-05-09T18:39:54.908Z,24.00
2023-05-09T18:42:42.724Z,24.30
2023-05-09T18:45:30.858Z,24.10
2023-05-09T18:48:18.374Z,24.00
2023-05-09T18:51:06.164Z,23.70
2023-05-09T18:53:53.833Z,23.50
2023-05-09T18:56:42.467Z,23.70
2023-05-09T18:59:29.947Z,24.00
2023-05-09T19:02:18.420Z,23.60
2023-05-09T19:05:09.731Z,23.70
2023-05-09T19:07:59.031Z,23.30
2023-05-09T19:10:46.569Z,23.30
2023-05-09T19:13:38.325Z,23.70
2023-05-09T19:16:26.870Z,23.20
2023-05-09T19:19:14.562Z,23.30
2023-05-09T19:22:02.166Z,23.20
2023-05-09T19:24:51.586Z,23.40
2023-05-09T19:27:39.037Z,23.20
2023-05-09T19:30:26.537Z,23.20
2023-05-09T19:33:14.102Z,22.90
2023-05-09T19:36:01.634Z,23.10
2023-05-09T19:38:49.104Z,23.10
2023-05-09T19:41:36.709Z,22.70
2023-05-09T19:44:24.972Z,22.90
2023-05-09T19:47:12.437Z,22.70
2023-05-09T19:50:00.188Z,22.60
2023-05-09T19:52:47.695Z,22.70
2023-05-09T19:55:35.211Z,22.70
2023-05-09T19:58:22.867Z,22.50
2023-05-09T20:01:10.484Z,22.70
2023-05-09T20:03:58.038Z,22.40
2023-05-09T20:06:46.103Z,22.60
2023-05-09T20:09:33.648Z,22.50
2023-05-09T20:12:21.505Z,22.60
2023-05-09T20:15:09.694Z,22.60
2023-05-09T20:17:57.427Z,22.60
2023-05-09T20:20:44.989Z,22.30
2023-05-09T20:23:32.604Z,22.50
2023-05-09T20:26:20.142Z,21.90
2023-05-09T20:29:08.043Z,22.10
2023-05-09T20:31:55.727Z,22.20
2023-05-09T20:34:43.302Z,22.20
2023-05-09T20:37:30.736Z,22.10
2023-05-09T20:40:18.571Z,22.30
2023-05-09T20:43:06.204Z,21.60
2023-05-09T20:45:54.204Z,21.90
2023-05-09T20:48:41.723Z,21.80
2023-05-09T20:51:29.159Z,21.80
2023-05-09T20:54:17.864Z,21.60
2023-05-09T20:57:05.410Z,21.70
2023-05-09T20:59:52.926Z,21.80
2023-05-09T21:02:40.594Z,21.60
2023-05-09T21:05:28.220Z,21.80
2023-05-09T21:08:15.686Z,21.40
2023-05-09T21:11:03.120Z,21.60
2023-05-09T21:13:50.794Z,21.80
2023-05-09T21:16:38.659Z,21.60
2023-05-09T21:19:27.635Z,21.50
2023-05-09T21:22:15.114Z,21.40
2023-05-09T21:25:02.567Z,21.70
2023-05-09T21:27:50.505Z,21.60
2023-05-09T21:30:37.958Z,21.50
2023-05-09T21:33:25.786Z,21.60
2023-05-09T21:36:13.263Z,21.80
2023-05-09T21:39:00.818Z,21.50
2023-05-09T21:41:48.297Z,21.50
2023-05-09T21:44:36.487Z,21.40
2023-05-09T21:47:24.082Z,21.30
2023-05-09T21:50:11.856Z,21.40
2023-05-09T21:53:00.489Z,21.60
2023-05-09T21:55:47.946Z,21.50
2023-05-09T21:58:35.467Z,21.30
2023-05-09T22:01:22.970Z,21.30
2023-05-09T22:04:10.607Z,21.20
2023-05-09T22:06:58.033Z,21.30
2023-05-09T22:09:45.467Z,21.40
2023-05-09T22:12:33.775Z,21.20
2023-05-09T22:15:21.416Z,21.20
2023-05-09T22:18:08.967Z,21.20
2023-05-09T22:20:56.461Z,21.20
2023-05-09T22:23:44.297Z,20.90
2023-05-09T22:26:31.958Z,21.10
2023-05-09T22:29:19.481Z,21.10
2023-05-09T22:32:08.375Z,21.10
2023-05-09T22:34:56.945Z,21.10
2023-05-09T22:37:44.412Z,20.90
2023-05-09T22:40:32.243Z,20.90
2023-05-09T22:43:20.391Z,20.80
2023-05-09T22:46:08.123Z,20.70
2023-05-09T22:48:55.644Z,21.00
2023-05-09T22:51:43.110Z,20.90
2023-05-09T22:54:30.681Z,20.90
2023-05-09T22:57:19.266Z,21.10
2023-05-09T23:00:08.198Z,20.70
2023-05-09T23:02:55.795Z,21.10
2023-05-09T23:05:43.527Z,20.90
2023-05-09T23:08:31.083Z,20.70
2023-05-09T23:11:18.652Z,20.50
2023-05-09T23:14:06.752Z,20.70
2023-05-09T23:16:54.305Z,20.90
2023-05-09T23:19:41.779Z,20.70
2023-05-09T23:22:31.443Z,20.70
2023-05-09T23:25:19.163Z,20.70
2023-05-09T23:28:06.781Z,20.60
2023-05-09T23:30:54.871Z,20.50
2023-05-09T23:33:42.444Z,20.40
2023-05-09T23:36:29.919Z,20.00
2023-05-09T23:39:17.358Z,20.20
2023-05-09T23:42:05.013Z,20.20
2023-05-09T23:44:52.507Z,20.40
2023-05-09T23:47:39.962Z,20.10
2023-05-09T23:50:27.460Z,20.10
2023-05-09T23:53:14.902Z,20.20
2023-05-09T23:56:03.231Z,20.00
2023-05-09T23:58:50.714Z,20.00
